sensor_id;sensor_type;location;lat;lon;timestamp;temperature;humidity
16140;DHT22;8175;49.326;12.690;2023-05-23T00:02:22;13.20;99.90
16140;DHT22;8175;49.326;12.690;2023-05-23T00:04:47;13.20;99.90
16140;DHT22;8175;49.326;12.690;2023-05-23T00:07:14;13.30;99.90
16140;DHT22;8175;49.326;12.690;2023-05-23T00:09:40;13.30;99.90
16140;DHT22;8175;49.326;12.690;2023-05-23T00:12:06;13.30;99.90
16140;DHT22;8175;49.326;12.690;2023-05-23T00:14:32;13.40;99.90
16140;DHT22;8175;49.326;12.690;2023-05-23T00:16:58;13.40;99.90
16140;DHT22;8175;49.326;12.690;2023-05-23T00:19:25;13.40;99.90
16140;DHT22;8175;49.326;12.690;2023-05-23T00:21:51;13.30;99.90
16140;DHT22;8175;49.326;12.690;2023-05-23T00:24:20;13.20;99.90
16140;DHT22;8175;49.326;12.690;2023-05-23T00:26:46;13.20;99.90
16140;DHT22;8175;49.326;12.690;2023-05-23T00:29:12;13.30;99.90
16140;DHT22;8175;49.326;12.690;2023-05-23T00:31:41;13.40;99.90
16140;DHT22;8175;49.326;12.690;2023-05-23T00:34:11;13.50;99.90
16140;DHT22;8175;49.326;12.690;2023-05-23T00:36:36;13.50;99.90
16140;DHT22;8175;49.326;12.690;2023-05-23T00:39:02;13.50;99.90
16140;DHT22;8175;49.326;12.690;2023-05-23T00:41:29;13.40;99.90
16140;DHT22;8175;49.326;12.690;2023-05-23T00:43:56;13.30;99.90
16140;DHT22;8175;49.326;12.690;2023-05-23T00:46:25;13.40;99.90
16140;DHT22;8175;49.326;12.690;2023-05-23T00:48:51;13.50;99.90
16140;DHT22;8175;49.326;12.690;2023-05-23T00:51:17;13.40;99.90
16140;DHT22;8175;49.326;12.690;2023-05-23T00:53:44;13.30;99.90
16140;DHT22;8175;49.326;12.690;2023-05-23T00:56:09;13.20;99.90
16140;DHT22;8175;49.326;12.690;2023-05-23T00:58:37;13.10;99.90
16140;DHT22;8175;49.326;12.690;2023-05-23T01:01:02;13.10;99.90
16140;DHT22;8175;49.326;12.690;2023-05-23T01:03:28;13.00;99.90
16140;DHT22;8175;49.326;12.690;2023-05-23T01:05:55;12.90;99.90
16140;DHT22;8175;49.326;12.690;2023-05-23T01:08:21;12.80;99.90
16140;DHT22;8175;49.326;12.690;2023-05-23T01:10:47;12.80;99.90
16140;DHT22;8175;49.326;12.690;2023-05-23T01:14:09;12.70;99.90
16140;DHT22;8175;49.326;12.690;2023-05-23T01:16:18;12.60;99.90
16140;DHT22;8175;49.326;12.690;2023-05-23T01:21:33;12.50;99.90
16140;DHT22;8175;49.326;12.690;2023-05-23T01:24:41;12.60;99.90
16140;DHT22;8175;49.326;12.690;2023-05-23T01:27:22;12.50;99.90
16140;DHT22;8175;49.326;12.690;2023-05-23T01:29:55;12.50;99.90
16140;DHT22;8175;49.326;12.690;2023-05-23T01:32:24;12.50;99.90
16140;DHT22;8175;49.326;12.690;2023-05-23T01:34:52;12.50;99.90
16140;DHT22;8175;49.326;12.690;2023-05-23T01:37:18;12.50;99.90
16140;DHT22;8175;49.326;12.690;2023-05-23T01:39:45;12.50;99.90
16140;DHT22;8175;49.326;12.690;2023-05-23T01:42:10;12.60;99.90
16140;DHT22;8175;49.326;12.690;2023-05-23T01:44:38;12.70;99.90
16140;DHT22;8175;49.326;12.690;2023-05-23T01:47:06;12.80;99.90
16140;DHT22;8175;49.326;12.690;2023-05-23T01:49:34;12.90;99.90
16140;DHT22;8175;49.326;12.690;2023-05-23T01:52:01;12.80;99.90
16140;DHT22;8175;49.326;12.690;2023-05-23T01:54:28;12.70;99.90
16140;DHT22;8175;49.326;12.690;2023-05-23T01:56:56;12.70;99.90
16140;DHT22;8175;49.326;12.690;2023-05-23T01:59:22;12.60;99.90
16140;DHT22;8175;49.326;12.690;2023-05-23T02:01:48;12.50;99.90
16140;DHT22;8175;49.326;12.690;2023-05-23T02:04:13;12.50;99.90
16140;DHT22;8175;49.326;12.690;2023-05-23T02:06:40;12.40;99.90
16140;DHT22;8175;49.326;12.690;2023-05-23T02:09:06;12.40;99.90
16140;DHT22;8175;49.326;12.690;2023-05-23T02:11:33;12.40;99.90
16140;DHT22;8175;49.326;12.690;2023-05-23T02:13:58;12.50;99.90
16140;DHT22;8175;49.326;12.690;2023-05-23T02:16:24;12.40;99.90
16140;DHT22;8175;49.326;12.690;2023-05-23T02:18:51;12.40;99.90
16140;DHT22;8175;49.326;12.690;2023-05-23T02:21:22;12.30;99.90
16140;DHT22;8175;49.326;12.690;2023-05-23T02:23:47;12.20;99.90
16140;DHT22;8175;49.326;12.690;2023-05-23T02:26:13;12.10;99.90
16140;DHT22;8175;49.326;12.690;2023-05-23T02:28:39;12.10;99.90
16140;DHT22;8175;49.326;12.690;2023-05-23T02:31:05;12.20;99.90
16140;DHT22;8175;49.326;12.690;2023-05-23T02:33:31;12.20;99.90
16140;DHT22;8175;49.326;12.690;2023-05-23T02:35:56;12.10;99.90
16140;DHT22;8175;49.326;12.690;2023-05-23T02:38:22;12.20;99.90
16140;DHT22;8175;49.326;12.690;2023-05-23T02:40:48;12.20;99.90
16140;DHT22;8175;49.326;12.690;2023-05-23T02:43:16;12.30;99.90
16140;DHT22;8175;49.326;12.690;2023-05-23T02:45:41;12.40;99.90
16140;DHT22;8175;49.326;12.690;2023-05-23T04:20:35;13.80;99.90
16140;DHT22;8175;49.326;12.690;2023-05-23T04:23:00;14.00;99.90
16140;DHT22;8175;49.326;12.690;2023-05-23T04:25:26;14.20;99.90
16140;DHT22;8175;49.326;12.690;2023-05-23T04:27:52;14.30;99.90
16140;DHT22;8175;49.326;12.690;2023-05-23T04:30:18;14.40;99.90
16140;DHT22;8175;49.326;12.690;2023-05-23T04:32:45;14.50;99.90
16140;DHT22;8175;49.326;12.690;2023-05-23T04:35:11;14.40;99.90
16140;DHT22;8175;49.326;12.690;2023-05-23T04:37:37;14.30;99.90
16140;DHT22;8175;49.326;12.690;2023-05-23T04:40:04;14.20;99.90
16140;DHT22;8175;49.326;12.690;2023-05-23T04:42:31;14.00;99.90
16140;DHT22;8175;49.326;12.690;2023-05-23T04:44:58;13.80;99.90
16140;DHT22;8175;49.326;12.690;2023-05-23T04:47:23;13.60;99.90
16140;DHT22;8175;49.326;12.690;2023-05-23T04:49:52;13.60;99.90
16140;DHT22;8175;49.326;12.690;2023-05-23T04:52:18;13.60;99.90
16140;DHT22;8175;49.326;12.690;2023-05-23T04:54:44;13.70;99.90
16140;DHT22;8175;49.326;12.690;2023-05-23T04:57:11;13.90;99.90
16140;DHT22;8175;49.326;12.690;2023-05-23T04:59:37;13.90;99.90
16140;DHT22;8175;49.326;12.690;2023-05-23T05:02:04;14.00;99.90
16140;DHT22;8175;49.326;12.690;2023-05-23T05:04:30;14.00;99.90
16140;DHT22;8175;49.326;12.690;2023-05-23T05:06:56;14.10;99.90
16140;DHT22;8175;49.326;12.690;2023-05-23T05:09:22;14.10;99.90
16140;DHT22;8175;49.326;12.690;2023-05-23T05:11:47;14.10;99.90
16140;DHT22;8175;49.326;12.690;2023-05-23T05:14:13;14.10;99.90
16140;DHT22;8175;49.326;12.690;2023-05-23T05:16:39;14.10;99.90
16140;DHT22;8175;49.326;12.690;2023-05-23T05:19:05;14.10;99.90
16140;DHT22;8175;49.326;12.690;2023-05-23T05:21:30;14.20;99.90
16140;DHT22;8175;49.326;12.690;2023-05-23T05:23:56;14.10;99.90
16140;DHT22;8175;49.326;12.690;2023-05-23T05:26:22;14.10;99.90
16140;DHT22;8175;49.326;12.690;2023-05-23T05:28:48;14.10;99.90
16140;DHT22;8175;49.326;12.690;2023-05-23T05:31:13;14.00;99.90
16140;DHT22;8175;49.326;12.690;2023-05-23T05:33:40;14.00;99.90
16140;DHT22;8175;49.326;12.690;2023-05-23T05:36:06;13.90;99.90
16140;DHT22;8175;49.326;12.690;2023-05-23T05:38:32;14.00;99.90
16140;DHT22;8175;49.326;12.690;2023-05-23T05:40:58;14.10;99.90
16140;DHT22;8175;49.326;12.690;2023-05-23T05:43:25;14.20;99.90
16140;DHT22;8175;49.326;12.690;2023-05-23T05:45:51;14.40;99.90
16140;DHT22;8175;49.326;12.690;2023-05-23T05:48:16;14.40;99.90
16140;DHT22;8175;49.326;12.690;2023-05-23T05:50:42;14.50;99.90
16140;DHT22;8175;49.326;12.690;2023-05-23T05:53:10;14.60;99.90
16140;DHT22;8175;49.326;12.690;2023-05-23T05:55:36;14.70;99.90
16140;DHT22;8175;49.326;12.690;2023-05-23T05:58:02;14.70;99.90
16140;DHT22;8175;49.326;12.690;2023-05-23T06:00:28;14.80;99.90
16140;DHT22;8175;49.326;12.690;2023-05-23T06:02:55;14.80;99.90
16140;DHT22;8175;49.326;12.690;2023-05-23T06:05:24;15.00;99.90
16140;DHT22;8175;49.326;12.690;2023-05-23T06:07:49;15.20;99.90
16140;DHT22;8175;49.326;12.690;2023-05-23T06:10:15;15.30;99.90
16140;DHT22;8175;49.326;12.690;2023-05-23T06:12:41;15.40;99.90
16140;DHT22;8175;49.326;12.690;2023-05-23T06:15:08;15.50;99.90
16140;DHT22;8175;49.326;12.690;2023-05-23T06:17:37;15.60;99.90
16140;DHT22;8175;49.326;12.690;2023-05-23T06:20:03;15.70;99.90
16140;DHT22;8175;49.326;12.690;2023-05-23T06:22:29;15.90;99.90
16140;DHT22;8175;49.326;12.690;2023-05-23T06:24:55;16.10;99.90
16140;DHT22;8175;49.326;12.690;2023-05-23T06:27:20;16.30;99.90
16140;DHT22;8175;49.326;12.690;2023-05-23T06:29:46;16.30;99.90
16140;DHT22;8175;49.326;12.690;2023-05-23T06:32:11;16.40;99.90
16140;DHT22;8175;49.326;12.690;2023-05-23T06:34:37;16.50;99.90
16140;DHT22;8175;49.326;12.690;2023-05-23T06:37:03;16.60;99.90
16140;DHT22;8175;49.326;12.690;2023-05-23T06:39:28;16.70;99.90
16140;DHT22;8175;49.326;12.690;2023-05-23T06:41:54;16.70;99.90
16140;DHT22;8175;49.326;12.690;2023-05-23T06:44:20;16.80;99.90
16140;DHT22;8175;49.326;12.690;2023-05-23T06:46:46;17.00;99.90
16140;DHT22;8175;49.326;12.690;2023-05-23T06:49:12;17.20;99.90
16140;DHT22;8175;49.326;12.690;2023-05-23T06:51:38;17.20;99.90
16140;DHT22;8175;49.326;12.690;2023-05-23T06:54:04;17.40;99.90
16140;DHT22;8175;49.326;12.690;2023-05-23T06:56:30;17.70;99.90
16140;DHT22;8175;49.326;12.690;2023-05-23T06:58:55;17.90;99.90
16140;DHT22;8175;49.326;12.690;2023-05-23T07:01:21;18.00;99.90
16140;DHT22;8175;49.326;12.690;2023-05-23T07:03:47;18.30;99.90
16140;DHT22;8175;49.326;12.690;2023-05-23T07:06:12;18.80;99.90
16140;DHT22;8175;49.326;12.690;2023-05-23T07:08:38;19.20;99.90
16140;DHT22;8175;49.326;12.690;2023-05-23T07:11:04;19.40;99.90
16140;DHT22;8175;49.326;12.690;2023-05-23T07:13:31;19.40;99.90
16140;DHT22;8175;49.326;12.690;2023-05-23T07:15:57;19.40;99.90
16140;DHT22;8175;49.326;12.690;2023-05-23T07:18:23;19.50;99.90
16140;DHT22;8175;49.326;12.690;2023-05-23T07:20:48;19.60;99.90
16140;DHT22;8175;49.326;12.690;2023-05-23T07:23:14;19.80;99.90
16140;DHT22;8175;49.326;12.690;2023-05-23T07:25:40;19.90;99.90
16140;DHT22;8175;49.326;12.690;2023-05-23T07:28:07;20.30;99.90
16140;DHT22;8175;49.326;12.690;2023-05-23T07:30:33;20.60;99.90
16140;DHT22;8175;49.326;12.690;2023-05-23T07:32:58;20.70;99.90
16140;DHT22;8175;49.326;12.690;2023-05-23T07:35:24;21.20;99.90
16140;DHT22;8175;49.326;12.690;2023-05-23T07:37:53;21.80;99.90
16140;DHT22;8175;49.326;12.690;2023-05-23T07:40:21;22.50;99.90
16140;DHT22;8175;49.326;12.690;2023-05-23T07:42:47;23.40;99.90
16140;DHT22;8175;49.326;12.690;2023-05-23T07:45:12;23.80;99.90
16140;DHT22;8175;49.326;12.690;2023-05-23T07:47:38;24.70;99.90
16140;DHT22;8175;49.326;12.690;2023-05-23T07:50:05;25.50;99.90
16140;DHT22;8175;49.326;12.690;2023-05-23T07:52:31;25.70;99.90
16140;DHT22;8175;49.326;12.690;2023-05-23T07:54:57;25.80;99.90
16140;DHT22;8175;49.326;12.690;2023-05-23T07:57:23;25.50;99.90
16140;DHT22;8175;49.326;12.690;2023-05-23T07:59:49;25.70;99.90
16140;DHT22;8175;49.326;12.690;2023-05-23T08:02:15;25.80;99.90
16140;DHT22;8175;49.326;12.690;2023-05-23T08:04:41;25.40;99.90
16140;DHT22;8175;49.326;12.690;2023-05-23T08:07:07;25.50;99.90
16140;DHT22;8175;49.326;12.690;2023-05-23T08:09:34;25.30;99.90
16140;DHT22;8175;49.326;12.690;2023-05-23T08:12:00;25.20;99.90
16140;DHT22;8175;49.326;12.690;2023-05-23T08:14:26;25.20;99.90
16140;DHT22;8175;49.326;12.690;2023-05-23T08:16:52;24.50;99.90
16140;DHT22;8175;49.326;12.690;2023-05-23T08:19:18;24.10;99.90
16140;DHT22;8175;49.326;12.690;2023-05-23T08:21:44;25.10;99.90
16140;DHT22;8175;49.326;12.690;2023-05-23T08:24:10;25.20;99.90
16140;DHT22;8175;49.326;12.690;2023-05-23T08:26:37;24.70;99.90
16140;DHT22;8175;49.326;12.690;2023-05-23T08:29:03;24.40;99.90
16140;DHT22;8175;49.326;12.690;2023-05-23T08:31:29;24.50;99.90
16140;DHT22;8175;49.326;12.690;2023-05-23T08:33:55;24.30;99.90
16140;DHT22;8175;49.326;12.690;2023-05-23T08:36:21;24.30;99.90
16140;DHT22;8175;49.326;12.690;2023-05-23T08:38:48;25.40;99.90
16140;DHT22;8175;49.326;12.690;2023-05-23T08:41:21;25.70;99.90
16140;DHT22;8175;49.326;12.690;2023-05-23T08:43:47;26.30;99.90
16140;DHT22;8175;49.326;12.690;2023-05-23T08:46:14;26.40;99.90
16140;DHT22;8175;49.326;12.690;2023-05-23T08:48:42;25.80;99.90
16140;DHT22;8175;49.326;12.690;2023-05-23T08:51:13;25.40;99.90
16140;DHT22;8175;49.326;12.690;2023-05-23T08:53:41;25.60;99.90
16140;DHT22;8175;49.326;12.690;2023-05-23T08:56:12;25.50;99.90
16140;DHT22;8175;49.326;12.690;2023-05-23T08:58:38;24.70;99.90
16140;DHT22;8175;49.326;12.690;2023-05-23T09:01:07;24.60;99.90
16140;DHT22;8175;49.326;12.690;2023-05-23T09:03:34;24.80;99.90
16140;DHT22;8175;49.326;12.690;2023-05-23T09:06:02;25.10;99.90
16140;DHT22;8175;49.326;12.690;2023-05-23T09:08:28;25.60;99.90
16140;DHT22;8175;49.326;12.690;2023-05-23T09:10:54;26.10;99.90
16140;DHT22;8175;49.326;12.690;2023-05-23T09:13:20;26.50;99.90
16140;DHT22;8175;49.326;12.690;2023-05-23T09:18:33;25.80;99.90
16140;DHT22;8175;49.326;12.690;2023-05-23T09:21:01;25.80;99.90
16140;DHT22;8175;49.326;12.690;2023-05-23T09:23:31;26.00;99.90
16140;DHT22;8175;49.326;12.690;2023-05-23T09:26:01;26.00;99.50
16140;DHT22;8175;49.326;12.690;2023-05-23T09:28:28;26.40;99.90
16140;DHT22;8175;49.326;12.690;2023-05-23T09:31:00;26.50;99.90
16140;DHT22;8175;49.326;12.690;2023-05-23T09:33:47;26.00;95.40
16140;DHT22;8175;49.326;12.690;2023-05-23T09:36:14;24.80;99.90
16140;DHT22;8175;49.326;12.690;2023-05-23T09:38:41;25.30;99.90
16140;DHT22;8175;49.326;12.690;2023-05-23T09:41:08;26.30;99.50
16140;DHT22;8175;49.326;12.690;2023-05-23T09:43:37;26.80;98.10
16140;DHT22;8175;49.326;12.690;2023-05-23T09:46:08;26.80;95.90
16140;DHT22;8175;49.326;12.690;2023-05-23T09:48:34;25.30;99.90
16140;DHT22;8175;49.326;12.690;2023-05-23T09:51:08;24.70;99.90
16140;DHT22;8175;49.326;12.690;2023-05-23T09:53:35;25.10;99.90
16140;DHT22;8175;49.326;12.690;2023-05-23T09:56:02;25.00;99.90
16140;DHT22;8175;49.326;12.690;2023-05-23T09:58:28;24.10;99.90
16140;DHT22;8175;49.326;12.690;2023-05-23T10:00:55;24.70;99.90
16140;DHT22;8175;49.326;12.690;2023-05-23T10:03:52;25.40;98.20
16140;DHT22;8175;49.326;12.690;2023-05-23T10:08:53;26.30;97.70
16140;DHT22;8175;49.326;12.690;2023-05-23T10:14:09;25.20;99.90
16140;DHT22;8175;49.326;12.690;2023-05-23T10:16:47;23.10;99.90
16140;DHT22;8175;49.326;12.690;2023-05-23T10:21:58;24.00;99.90
16140;DHT22;8175;49.326;12.690;2023-05-23T10:24:25;25.20;99.90
16140;DHT22;8175;49.326;12.690;2023-05-23T10:26:54;25.70;99.90
16140;DHT22;8175;49.326;12.690;2023-05-23T10:29:21;26.30;99.40
16140;DHT22;8175;49.326;12.690;2023-05-23T10:31:48;26.00;96.90
16140;DHT22;8175;49.326;12.690;2023-05-23T10:37:03;24.40;99.90
16140;DHT22;8175;49.326;12.690;2023-05-23T10:39:58;23.60;99.90
16140;DHT22;8175;49.326;12.690;2023-05-23T10:45:18;24.40;99.90
16140;DHT22;8175;49.326;12.690;2023-05-23T10:47:45;24.70;99.90
16140;DHT22;8175;49.326;12.690;2023-05-23T10:50:15;25.10;99.90
16140;DHT22;8175;49.326;12.690;2023-05-23T10:52:42;23.60;99.90
16140;DHT22;8175;49.326;12.690;2023-05-23T10:55:15;22.30;99.90
16140;DHT22;8175;49.326;12.690;2023-05-23T10:57:43;23.50;99.90
16140;DHT22;8175;49.326;12.690;2023-05-23T11:02:46;25.80;95.50
16140;DHT22;8175;49.326;12.690;2023-05-23T11:05:22;24.90;99.60
16140;DHT22;8175;49.326;12.690;2023-05-23T11:08:12;24.80;99.90
16140;DHT22;8175;49.326;12.690;2023-05-23T11:11:02;23.80;99.90
16140;DHT22;8175;49.326;12.690;2023-05-23T11:16:30;23.90;99.90
16140;DHT22;8175;49.326;12.690;2023-05-23T11:21:54;22.40;99.90
16140;DHT22;8175;49.326;12.690;2023-05-23T11:24:20;21.50;99.90
16140;DHT22;8175;49.326;12.690;2023-05-23T11:26:53;21.10;99.90
16140;DHT22;8175;49.326;12.690;2023-05-23T11:29:19;20.90;99.90
16140;DHT22;8175;49.326;12.690;2023-05-23T11:31:45;21.10;99.90
16140;DHT22;8175;49.326;12.690;2023-05-23T11:34:11;21.30;99.90
16140;DHT22;8175;49.326;12.690;2023-05-23T11:36:38;21.10;99.90
16140;DHT22;8175;49.326;12.690;2023-05-23T11:39:05;22.40;99.90
16140;DHT22;8175;49.326;12.690;2023-05-23T11:41:31;22.20;99.90
16140;DHT22;8175;49.326;12.690;2023-05-23T11:43:57;21.60;99.90
16140;DHT22;8175;49.326;12.690;2023-05-23T11:46:24;22.40;99.90
16140;DHT22;8175;49.326;12.690;2023-05-23T11:48:49;23.50;99.90
16140;DHT22;8175;49.326;12.690;2023-05-23T11:51:16;24.30;99.90
16140;DHT22;8175;49.326;12.690;2023-05-23T11:53:42;25.30;99.90
16140;DHT22;8175;49.326;12.690;2023-05-23T11:56:07;26.20;99.90
16140;DHT22;8175;49.326;12.690;2023-05-23T11:58:38;26.30;99.60
16140;DHT22;8175;49.326;12.690;2023-05-23T12:01:08;25.80;97.50
16140;DHT22;8175;49.326;12.690;2023-05-23T12:03:47;25.80;99.90
16140;DHT22;8175;49.326;12.690;2023-05-23T12:06:18;26.40;94.20
16140;DHT22;8175;49.326;12.690;2023-05-23T12:08:45;27.30;93.60
16140;DHT22;8175;49.326;12.690;2023-05-23T12:11:11;27.50;92.10
16140;DHT22;8175;49.326;12.690;2023-05-23T12:13:40;26.60;91.60
16140;DHT22;8175;49.326;12.690;2023-05-23T12:16:06;24.90;92.30
16140;DHT22;8175;49.326;12.690;2023-05-23T12:18:33;24.50;94.00
16140;DHT22;8175;49.326;12.690;2023-05-23T12:21:04;24.60;93.80
16140;DHT22;8175;49.326;12.690;2023-05-23T12:23:33;24.90;93.70
16140;DHT22;8175;49.326;12.690;2023-05-23T12:26:03;25.50;93.40
16140;DHT22;8175;49.326;12.690;2023-05-23T12:28:49;25.50;89.50
16140;DHT22;8175;49.326;12.690;2023-05-23T12:31:20;25.70;90.90
16140;DHT22;8175;49.326;12.690;2023-05-23T12:33:47;25.20;88.60
16140;DHT22;8175;49.326;12.690;2023-05-23T12:36:24;24.90;91.90
16140;DHT22;8175;49.326;12.690;2023-05-23T12:38:50;25.50;92.50
16140;DHT22;8175;49.326;12.690;2023-05-23T12:41:18;25.40;91.00
16140;DHT22;8175;49.326;12.690;2023-05-23T12:43:54;26.10;88.90
16140;DHT22;8175;49.326;12.690;2023-05-23T12:46:21;25.60;83.60
16140;DHT22;8175;49.326;12.690;2023-05-23T12:48:46;24.90;87.40
16140;DHT22;8175;49.326;12.690;2023-05-23T12:51:13;24.80;89.20
16140;DHT22;8175;49.326;12.690;2023-05-23T12:53:39;25.00;88.30
16140;DHT22;8175;49.326;12.690;2023-05-23T12:56:04;25.10;87.80
16140;DHT22;8175;49.326;12.690;2023-05-23T12:58:30;25.10;90.20
16140;DHT22;8175;49.326;12.690;2023-05-23T13:00:57;25.40;87.10
16140;DHT22;8175;49.326;12.690;2023-05-23T13:03:23;25.40;87.30
16140;DHT22;8175;49.326;12.690;2023-05-23T13:05:49;25.30;90.00
16140;DHT22;8175;49.326;12.690;2023-05-23T13:08:15;25.10;89.70
16140;DHT22;8175;49.326;12.690;2023-05-23T13:10:42;25.40;92.60
16140;DHT22;8175;49.326;12.690;2023-05-23T13:13:07;25.30;86.60
16140;DHT22;8175;49.326;12.690;2023-05-23T13:15:33;24.70;88.00
16140;DHT22;8175;49.326;12.690;2023-05-23T13:17:59;24.20;90.00
16140;DHT22;8175;49.326;12.690;2023-05-23T13:20:24;24.20;90.40
16140;DHT22;8175;49.326;12.690;2023-05-23T13:22:55;23.90;91.60
16140;DHT22;8175;49.326;12.690;2023-05-23T13:25:21;24.50;93.30
16140;DHT22;8175;49.326;12.690;2023-05-23T13:27:46;24.20;91.50
16140;DHT22;8175;49.326;12.690;2023-05-23T13:30:12;24.10;91.90
16140;DHT22;8175;49.326;12.690;2023-05-23T13:32:38;24.00;92.40
16140;DHT22;8175;49.326;12.690;2023-05-23T13:35:04;23.90;92.20
16140;DHT22;8175;49.326;12.690;2023-05-23T13:37:30;23.20;92.00
16140;DHT22;8175;49.326;12.690;2023-05-23T13:39:55;23.20;95.30
16140;DHT22;8175;49.326;12.690;2023-05-23T13:42:21;23.80;95.20
16140;DHT22;8175;49.326;12.690;2023-05-23T13:44:47;24.20;94.80
16140;DHT22;8175;49.326;12.690;2023-05-23T13:47:13;23.80;95.90
16140;DHT22;8175;49.326;12.690;2023-05-23T13:49:40;24.20;93.20
16140;DHT22;8175;49.326;12.690;2023-05-23T13:52:06;23.60;92.70
16140;DHT22;8175;49.326;12.690;2023-05-23T13:54:32;23.60;93.00
16140;DHT22;8175;49.326;12.690;2023-05-23T13:56:59;22.80;94.10
16140;DHT22;8175;49.326;12.690;2023-05-23T13:59:27;22.30;93.30
16140;DHT22;8175;49.326;12.690;2023-05-23T14:01:53;22.50;93.10
16140;DHT22;8175;49.326;12.690;2023-05-23T14:04:19;22.00;95.80
16140;DHT22;8175;49.326;12.690;2023-05-23T14:06:45;22.30;97.50
16140;DHT22;8175;49.326;12.690;2023-05-23T14:09:10;22.00;94.30
16140;DHT22;8175;49.326;12.690;2023-05-23T14:11:37;22.10;93.10
16140;DHT22;8175;49.326;12.690;2023-05-23T14:14:03;22.20;93.60
16140;DHT22;8175;49.326;12.690;2023-05-23T14:16:28;22.80;91.80
16140;DHT22;8175;49.326;12.690;2023-05-23T14:18:54;23.30;92.80
16140;DHT22;8175;49.326;12.690;2023-05-23T14:21:20;23.30;93.20
16140;DHT22;8175;49.326;12.690;2023-05-23T14:23:46;23.30;94.70
16140;DHT22;8175;49.326;12.690;2023-05-23T14:26:12;23.20;93.70
16140;DHT22;8175;49.326;12.690;2023-05-23T14:28:38;23.40;91.90
16140;DHT22;8175;49.326;12.690;2023-05-23T14:31:04;23.50;90.20
16140;DHT22;8175;49.326;12.690;2023-05-23T14:33:30;23.10;91.00
16140;DHT22;8175;49.326;12.690;2023-05-23T14:35:56;22.60;88.90
16140;DHT22;8175;49.326;12.690;2023-05-23T14:38:21;22.80;91.00
16140;DHT22;8175;49.326;12.690;2023-05-23T14:40:47;23.00;91.70
16140;DHT22;8175;49.326;12.690;2023-05-23T14:43:14;22.80;92.00
16140;DHT22;8175;49.326;12.690;2023-05-23T14:45:40;22.10;94.40
16140;DHT22;8175;49.326;12.690;2023-05-23T14:48:06;21.90;95.20
16140;DHT22;8175;49.326;12.690;2023-05-23T14:50:32;21.30;94.90
16140;DHT22;8175;49.326;12.690;2023-05-23T14:52:58;20.70;94.80
16140;DHT22;8175;49.326;12.690;2023-05-23T14:55:24;20.70;99.30
16140;DHT22;8175;49.326;12.690;2023-05-23T14:57:50;21.70;95.40
16140;DHT22;8175;49.326;12.690;2023-05-23T15:00:16;22.40;93.60
16140;DHT22;8175;49.326;12.690;2023-05-23T15:02:42;23.10;91.40
16140;DHT22;8175;49.326;12.690;2023-05-23T15:05:08;23.30;90.80
16140;DHT22;8175;49.326;12.690;2023-05-23T15:07:34;24.00;89.90
16140;DHT22;8175;49.326;12.690;2023-05-23T15:10:00;24.40;90.50
16140;DHT22;8175;49.326;12.690;2023-05-23T15:12:27;24.20;86.80
16140;DHT22;8175;49.326;12.690;2023-05-23T15:14:53;23.10;88.20
16140;DHT22;8175;49.326;12.690;2023-05-23T15:17:27;22.20;90.30
16140;DHT22;8175;49.326;12.690;2023-05-23T15:19:52;22.20;91.50
16140;DHT22;8175;49.326;12.690;2023-05-23T15:22:18;22.40;90.20
16140;DHT22;8175;49.326;12.690;2023-05-23T15:24:44;22.00;91.10
16140;DHT22;8175;49.326;12.690;2023-05-23T15:27:10;21.20;93.90
16140;DHT22;8175;49.326;12.690;2023-05-23T15:29:35;20.60;94.60
16140;DHT22;8175;49.326;12.690;2023-05-23T15:32:04;20.10;94.80
16140;DHT22;8175;49.326;12.690;2023-05-23T15:34:30;19.60;99.30
16140;DHT22;8175;49.326;12.690;2023-05-23T15:36:56;19.30;99.90
16140;DHT22;8175;49.326;12.690;2023-05-23T15:39:21;18.90;99.90
16140;DHT22;8175;49.326;12.690;2023-05-23T15:41:47;18.80;99.90
16140;DHT22;8175;49.326;12.690;2023-05-23T15:44:13;18.80;99.90
16140;DHT22;8175;49.326;12.690;2023-05-23T15:46:42;18.90;99.90
16140;DHT22;8175;49.326;12.690;2023-05-23T15:49:07;18.60;99.90
16140;DHT22;8175;49.326;12.690;2023-05-23T15:51:33;18.40;99.90
16140;DHT22;8175;49.326;12.690;2023-05-23T15:54:00;18.30;99.90
16140;DHT22;8175;49.326;12.690;2023-05-23T15:56:26;18.00;99.90
16140;DHT22;8175;49.326;12.690;2023-05-23T15:58:52;18.00;99.90
16140;DHT22;8175;49.326;12.690;2023-05-23T16:01:17;17.90;99.90
16140;DHT22;8175;49.326;12.690;2023-05-23T16:03:43;17.80;99.90
16140;DHT22;8175;49.326;12.690;2023-05-23T16:06:08;18.00;99.90
16140;DHT22;8175;49.326;12.690;2023-05-23T16:08:34;18.00;99.90
16140;DHT22;8175;49.326;12.690;2023-05-23T16:11:00;18.10;99.90
16140;DHT22;8175;49.326;12.690;2023-05-23T16:13:25;18.10;99.90
16140;DHT22;8175;49.326;12.690;2023-05-23T16:15:51;17.90;99.90
16140;DHT22;8175;49.326;12.690;2023-05-23T16:18:17;17.70;99.90
16140;DHT22;8175;49.326;12.690;2023-05-23T16:20:42;17.60;99.90
16140;DHT22;8175;49.326;12.690;2023-05-23T16:23:08;17.50;99.90
16140;DHT22;8175;49.326;12.690;2023-05-23T16:25:33;17.50;99.90
16140;DHT22;8175;49.326;12.690;2023-05-23T16:27:59;17.50;99.90
16140;DHT22;8175;49.326;12.690;2023-05-23T16:30:25;17.50;99.90
16140;DHT22;8175;49.326;12.690;2023-05-23T16:32:55;17.60;99.90
16140;DHT22;8175;49.326;12.690;2023-05-23T16:35:20;17.60;99.90
16140;DHT22;8175;49.326;12.690;2023-05-23T16:37:46;17.60;99.90
16140;DHT22;8175;49.326;12.690;2023-05-23T16:40:12;17.50;99.90
16140;DHT22;8175;49.326;12.690;2023-05-23T16:42:38;17.60;99.90
16140;DHT22;8175;49.326;12.690;2023-05-23T16:45:04;17.50;99.90
16140;DHT22;8175;49.326;12.690;2023-05-23T16:47:29;17.40;99.90
16140;DHT22;8175;49.326;12.690;2023-05-23T16:49:55;17.40;99.90
16140;DHT22;8175;49.326;12.690;2023-05-23T16:52:21;17.40;99.90
16140;DHT22;8175;49.326;12.690;2023-05-23T16:54:47;17.30;99.90
16140;DHT22;8175;49.326;12.690;2023-05-23T16:57:12;17.20;99.90
16140;DHT22;8175;49.326;12.690;2023-05-23T16:59:39;17.10;99.90
16140;DHT22;8175;49.326;12.690;2023-05-23T17:02:05;17.20;99.90
16140;DHT22;8175;49.326;12.690;2023-05-23T17:04:31;17.00;99.90
16140;DHT22;8175;49.326;12.690;2023-05-23T17:06:57;16.90;99.90
16140;DHT22;8175;49.326;12.690;2023-05-23T17:09:23;16.90;99.90
16140;DHT22;8175;49.326;12.690;2023-05-23T17:11:48;16.90;99.90
16140;DHT22;8175;49.326;12.690;2023-05-23T17:14:15;16.90;99.90
16140;DHT22;8175;49.326;12.690;2023-05-23T17:16:41;17.00;99.90
16140;DHT22;8175;49.326;12.690;2023-05-23T17:19:07;17.10;99.90
16140;DHT22;8175;49.326;12.690;2023-05-23T17:21:33;17.00;99.90
16140;DHT22;8175;49.326;12.690;2023-05-23T17:23:59;17.00;99.90
16140;DHT22;8175;49.326;12.690;2023-05-23T17:26:25;17.00;99.90
16140;DHT22;8175;49.326;12.690;2023-05-23T17:28:51;16.80;99.90
16140;DHT22;8175;49.326;12.690;2023-05-23T17:31:17;16.70;99.90